Terminal Aerodrome Forecast
Issued by NWS

Home | Current Version | Previous Version | Text Only | Print | Product List | Glossary Off
Versions: 1 2 3 4 5 6 7 8 9 10 11 12 13 14 15

000
FTUS42 KMHX 272328
TAFPGV
TAF
KPGV 272328Z 2800/2824 17010KT P6SM SCT050 SCT080
     FM280100 17005KT P6SM SCT250
     FM280600 17005KT P6SM BKN040
     FM281700 17010G15KT P6SM VCSH BKN050
      AMD LTD TO CLD VIS AND WIND=

USA.gov is the U.S. government's official web portal to all federal, state and local government web resources and services.